Back to year calendar - Race photos

Hilly Sports Beverley 10k Road Race, E. Yorkshire

13th May 2007

Results courtesy of Brian Richardson for Beverley AC. Updated 16/5/07
(This is a sortable table - click column heading)
Filter (choose one only!)
Surname:
Cat: Club:
PosNumForenameSurnameCatClubTime
14DarranBILTONM40Leeds City00:31:02
2531StevenBATESONMEast Hull Harriers00:32:29
31141AndrewPARKERMBolton Harriers00:33:33
4563LanceKIRLEWM45East Hull Harriers00:34:26
5684GreganCLARKSONMKingston on Hull AC00:34:58
61140TonyVALENTINEMBolton Harriers00:35:26
7953ChrisHODGSONM40East Hull Harriers00:35:33
8990DavidHUNTMCity Of Hull00:35:36
9399IanGREWARM45East Hull Harriers00:35:42
10625JamesCOOPERMHarrow AC00:35:46
11397PeteBAKERM 00:35:55
12173PhilMCCOYMEast Hull Harriers00:35:58
13422NigelSISSONMEast Hull Harriers00:36:14
141MelanieHAYWARDL35Beverley AC00:36:31
156RichardGAYM55Beverley AC00:36:36
16834PhilipMARTINM40Holmfirth Harriers00:36:46
1715JamesSTATHERSMBeverley AC00:36:49
18314KeithJOULESM40East Hull Harriers00:37:14
191031AikenHARRAPMU18 00:37:23
201172EddieREXMEast Hull Harriers00:37:44
21931TonyBURGINM40East Hull Harriers00:37:49
22638ChrisHARTLEYM40Easingwold RC00:37:50
23388GarryAVENELLM45East Hull Harriers00:37:53
24352KevinGREENMCleethorpe AC00:37:56
25344AndrewMASTERMANMGoole Vik Striders00:37:57
26788ChristianATKINMCleethorpe AC00:38:01
27283AndrewWATSONM40East Hull Harriers00:38:04
28922IanHIRDM45City Of Hull00:38:05
29411StephenWOODMPudsey Pacers00:38:09
30814AdamFOZZARDMCity Of Hull00:38:16
31240AshleyBRIGGSMBeverley AC00:38:22
321176StephenCOATESMBarracuda Tri00:38:25
33353GaryROBINSONMWest 4 Harr00:38:28
349TimSIMPSONMBeverley AC00:38:32
35178HelenWILCOCKLPock' Runners00:38:40
3611IanBOARDLEYMBeverley AC00:38:44
37778AdamWRIGHTM40Redhill Road Runners00:38:46
38876MikeBEADLEM45City Of Hull00:38:47
39959DavidWADDINGTONM40East Hull Harriers00:38:56
401210BenTAYLORM 00:39:00
41717PeterGOLCMBridlington Road Runners00:39:02
421197MikeHATTANM 00:39:05
43323TimSAVAGEM 00:39:07
44926PaulFROSTM50East Hull Harriers00:39:09
45984JasonSIEGLERM 00:39:10
46429NeilSCRUTONM55Scarboro' AC00:39:13
47239HelenBRIGGSL35Beverley AC00:39:14
4865DavidMUCKERSIEM45York Acorn00:39:16
49165TomDAYMBarracuda Tri00:39:18
50393StuartRHODESM40City Of Hull00:39:19
51903BenIMESONM 00:39:23
52719PhillipGIBSONM40Fenners Flyers00:39:32
53426STEVEMILSONM50Hull Springhead Harriers00:39:33
541080ChrisHALLM40 00:39:34
55248DavidGATHERMOLEM45 00:39:35
56166IanHUSBANDM45Driffield Striders00:39:37
57673JohnSMITHM50City Of Hull00:39:41
58439RoyPARTINGTONM45 00:39:44
59645LeeWARDELLM40 00:39:48
601193JohnJACKSONM55Bridlington Road Runners00:39:49
61998JamesSAMPSONM40City Of Hull00:39:50
62769AndrewNORTONMRedhill Road Runners00:39:57
63896MathewTUNEMWhite City Road Runners00:39:58
64957MarkLAWSONMHull Springhead Harriers00:39:59
65280PeterSTOCKDALEM45Barracuda Tri00:40:00
66265AubreyMORRELLM 00:40:01
672CarrieMILLSONLBeverley AC00:40:06
6823StephenPEACOCKM40Beverley AC00:40:07
69511DavidMATHERM50City Of Hull00:40:10
70473DanielHAMMONDMBeverley AC00:40:14
71844NeilBENTLEYMGoole Vik Striders00:40:16
72358AndyARNOLDM45Beverley AC00:40:17
73465MartinBOOTHM50Goole Vik Striders00:40:17
741160GlennMOUNTFORDMCity Of Hull00:40:19
75564DavidBELLMWhite City Road Runners00:40:19
76440PaulCARTWRIGHTM50Hull Springhead Harriers00:40:22
77707ChristopherHEALYM40 00:40:27
78233JulieBARLEYL40Leeds City00:40:30
79102PaulDUGHANM 00:40:31
80859PaulANDREWSM40East Hull Harriers00:40:34
8186Emily LouiseRENNYL 00:40:37
821127RobertTHOMPSONM50City Of Hull00:40:38
83954JamesADDISONM 00:40:39
84368LeslieHUDSONM50East Hull Harriers00:40:39
851041JoshTANKARDMU18 00:40:44
8662FrancescaLEIGHTONL 00:40:46
87582StephenMORRISM40Hull Springhead Harriers00:40:48
8825NealBOARDLEYM 00:40:49
89864DaveSHIPLEYM50Scarboro' AC00:40:51
901047RobertNASHMU18 00:41:00
91497PhilDEWBERRYM55Hull Springhead Harriers00:41:01
92532AdrianMESSINGHANM 00:41:09
9335PhilipBURNMU18Beverley AC00:41:11
94568DarrenRODMELLM 00:41:18
951152DarrenCARTWRIGHTMRothwell Harriers00:41:22
961148JamieFARRMSpringhead Harriers00:41:24
97311StephenBOLTONM40Barracuda Tri00:41:25
98128MichaelCRAIGM45White City Road Runners00:41:27
99741AdrianROOKSM45 00:41:37
100423AlistairHUTTONM 00:41:45
101199AmandaDEANL45West Hull Ladies00:41:47
102349SteveHUNTM40 00:41:49
103467AlanWOOLSTONM 00:41:56
104895StuartLAZENBYM40 00:41:58
105921TrevorGREENM 00:41:59
106264ZoeDAVISLKnavesmire Harriers00:42:00
107837MarkTHOMPSONMGoole Vik Striders00:42:04
108351JohnSAVAGEM45East Hull Harriers00:42:08
10936JordanARNOTTMU18Beverley AC00:42:10
1103SimonKNOPPMBeverley AC00:42:12
111209PatrickPIGGOTTM40Pock' Runners00:42:15
112185TerryHIRSTM50East Hull Harriers00:42:16
113798PhillipREAYMHaltemprice RRC00:42:17
114434PatMC GLONEM50 00:42:17
1151038TristanPUNNETTMU18 00:42:20
116573NickBULLM40 00:42:22
117141SamENNALSM 00:42:26
118335LeePHIPPSM 00:42:26
119905ThomasMACDONALDM40Bridlington Road Runners00:42:30
120576BruceWILLIAMSM45 00:42:31
121855MartinWILSONM 00:42:35
122354DavidWRAGGM 00:42:37
1231196NickAISTHORPEM40Cleethorpe AC00:42:40
124967AndrewWHITEM40 00:42:41
12573KevinTHOMASM55Rotherham Har & AC00:42:44
126222RachelHOUSEMANLPock' Runners00:42:49
12742DonJOHNSONM50Baildon Runners00:42:51
128549David IanFOSTERM50 00:42:54
129847GrahamCOOKM40City Of Hull00:42:56
130303EdPRESCOTTM 00:42:58
131174MathewLETHAMMAcorn York00:42:59
13245JustinMOOREM 00:43:03
1331030TobyWILLIAMSMU18 00:43:04
134713PeterBROWNM40 00:43:08
135343JulieMASTERMANL40Goole Vik Striders00:43:11
136829AlanBAYSTONM40Barracuda Tri00:43:12
137229AlanKENDRAM40Pock' Runners00:43:17
138136DarrenMOOREM 00:43:17
139929MichaelHAZELM50 00:43:18
140447LloydBODILLM 00:43:20
1411166IanWOODM 00:43:23
142177HowardCROSSMPock' Runners00:43:25
1431027TommyTAMMU18 00:43:26
144821AlastairBORTHWICKM40 00:43:27
145496MikeATKINSONM60Bridlington Road Runners00:43:30
146887MathewBLOOMFIELDM 00:43:32
147831EdWALKERMYork Knavesmire Harriers00:43:35
148772RogerTEAREM50Driffield Striders00:43:38
1491005AugustaAIKENLU18 00:43:41
1508JulieDONALDL35Beverley AC00:43:44
151213NeilGORDONMEast Hull Harriers00:43:48
1521013MichaelHALLM 00:43:50
153334KevinRENNISONM45East Hull Harriers00:43:51
15416AndyRHODESM 00:43:53
155765DavidWOOPM40 00:43:56
1561187NeilCAVILLM40City Of Hull00:44:01
157767AnthonyCARTERM40 00:44:02
1585MoiraARMSTRONGL45Beverley AC00:44:08
159854PaulHOLMESMPock' Runners00:44:10
160296GraigCOLESM 00:44:11
161629MurrayGORDONM40 00:44:12
1621175AlanLEAVERM50 00:44:13
1631159JustinHILLMSkipton AC00:44:14
164928JulianATKINM 00:44:15
165273MikePULLONM45uk net runner00:44:21
166101PamelaRICHARDSL35City Of Hull00:44:23
1671086ChristineCALVERTL40 00:44:24
168461ShanePAGEM45City Of Hull00:44:26
169381NicholasKENNETTM 00:44:29
170326GrahamNAYLORM55White City Road Runners00:44:30
171813TerryDAVIESM60Goole Vik Striders00:44:31
172832DavidLEIGHM40 00:44:32
173244SeanROUSEM 00:44:32
174196JohnLATUSM40 00:44:33
175934MichaelCARTERM55 00:44:33
1761016BenjaminFRANCEMU18 00:44:34
177225DavidWARDM40City Of Hull00:44:34
178287DanielBARRASSM 00:44:35
179253JohnBASKERM 00:44:35
18021StevenTHOROGOODM 00:44:37
181167SteveGIRKINGM40Hull Baracuddas Tri00:44:39
182125LewisWRIGHTMU18 00:44:40
1831161KevinMC MANUSM50City Of Hull00:44:40
184702TrevorBURTONM 00:44:44
185759Steven MarkBOWLEYM 00:44:47
186612AndrewWOODM 00:44:48
187598AndyKELLYM45 00:44:50
188909JonathanCHARGEM 00:44:51
189369MikeJACKSONMEast Hull Harriers00:44:53
190618DouglasBATTYM45Bridlington Road Runners00:44:54
191756DominicRAWNSLEYM40 00:44:55
192615AdamPLUMTREEM 00:44:56
193534SteveEVINSM 00:44:57
194740SarahHURDL35 00:45:02
195350AndyGRAYM45 00:45:03
1961004MikeHAYWARDM50 00:45:04
197514RobinFREEMANM45 00:45:05
19834NeilSERGEANTM55Beverley AC00:45:06
1997TinaWARDROPPERL40Beverley AC00:45:07
200848AngelaBULLINGHAML 00:45:08
2011135NickMAYNARDM 00:45:10
20289DominicMACMANUSM45 00:45:11
2031189MartinEMMETTM45 00:45:12
2041199JimWHITFIELDM60East Hull Harriers00:45:13
205301KatyGODFREYLYork Knavesmire Harriers00:45:14
206142AndrewPARKINSONM 00:45:15
20732HelenMORRISL 00:45:16
208593LeeHOLMESM 00:45:17
20943DeniseJOHNSONL45Baildon Runners00:45:23
2101105MatthewANHOLMMWithernsea Harriers00:45:25
211147PeterMARSONM40 00:45:27
21299PaulGARMSTONM 00:45:29
213816VernonCHAPMANM 00:45:30
214455DavidDODGSONM55Barracuda Tri00:45:31
215118NickBALDWINM 00:45:32
21684EmmaCAYWOODNDB 00:45:33
217308MarkJOHNSONM45 00:45:34
218539NatalieCOOKL40 00:45:35
2191102RaySMITHM45Goole Vik Striders00:45:38
2201202JamieMACLOUDM50 00:45:40
221495StephenCOVENEYM55City Of Hull00:45:42
222858DavidWILLINGHAMM50 00:45:44
2231185PeterWELSHM50 00:45:46
224986JonTRICEM 00:45:50
225139ChrisDAVISM 00:45:53
22671ShaunFORESM45East Hull Harriers00:45:55
227512MikeBAYSTONM40East Hull Harriers00:45:58
228815LuisMANSSUERMHull Achilles00:46:00
229960BarrieBUXTONM60City Of Hull00:46:01
2301072WilliamSMITHMU18 00:46:03
2311122PaulWITHERWICKM 00:46:04
232874PaulTHOMPSONM40 00:46:05
233935ReaANTHONYL40 00:46:09
234666RobREIDM40 00:46:15
235436MarcusBOURNEMPock' Runners00:46:17
2361146CarlHORTHM 00:46:17
237119TonyHUNTERM50 00:46:18
238881PaulCOLLINSM50 00:46:19
239739ChristopherHURDM45 00:46:20
2401173RichardATKINSONM 00:46:23
241168AndrewTOMLINSONM 00:46:27
242172IanFERGUSSONM 00:46:36
243972PaulMAHONEYM 00:46:37
244403LisaGOODEL 00:46:38
2451174GrahamDI DUCIAM45 00:46:40
2461091MarkCRASWELLM45 00:46:42
247364KelvinWESTERMANM50East Hull Harriers00:46:44
248575AlanAKRILLM 00:46:47
249385JustinBOWYERM 00:46:53
250930DavidJEFFREYM 00:46:55
251544MichaelCUNNINGHAMM45 00:46:57
252320SimonBARRETTM40 00:47:02
25366CathWADFORTHL55Hull Springhead Harriers00:47:05
254258MichaelCLARKM40Scun & Dist AC00:47:05
255792EmmaBARRACLOUGHL 00:47:08
256966PeterTHOMASM45 00:47:10
257860PaulMCC0NNELLM 00:47:11
25872ShaunDUTTONM 00:47:12
25995StevenDAWSONM45White City Road Runners00:47:16
260382MichaelHOWARDM40Spenborough ac00:47:25
261631RodneyHORROCKSM50 00:47:27
262417DavidBROOKESM50 00:47:28
263398RichardRIBYM 00:47:29
264305JamesPEARSONM 00:47:30
265431GrahamBROOKSM40 00:47:33
266300AdamDAWSONM 00:47:41
267212HelenHORROBINLEast Hull Harriers00:47:41
2681209BenLESM 00:47:41
2691180MatthewWRIGHTM 00:47:42
2701158RichardPURCELLM45 00:47:42
271961KeithBROCKLESBYM 00:47:42
272956MarkHARRISM 00:47:42
273550MichaelSMITHM 00:47:43
274318ClaireSCOTT TRAYNORL 00:47:43
275490AndrewJOHNSONM 00:47:43
276775LucCLAYTONM 00:47:44
277882ShaunWALKERM 00:47:44
278183GaryLAWSM40 00:47:45
279820SteveKITCHMANM40 00:47:45
28069GlennCAMPBELLM45White City Road Runners00:47:45
281232JayneDALEL45Beverley AC00:47:46
282150MelvynHURRENM45 00:47:46
283764MauriceTHORPEM45 00:47:46
284250MarkWILLISMWhite City Road Runners00:47:47
285450CarlGAYTONM45 00:47:53
286700CaroleBRATTANL40Hull Achilles00:47:55
287643PaulHAYCOCKM 00:47:57
288547KeithWILSONM60 00:48:00
289796RichardBRAMHAMM45Goole Vik Striders00:48:01
290823SarahHARDWICKL 00:48:01
2911165AvrilYOUNGL45City Of Hull00:48:03
292297SabastianDREWERYM 00:48:03
29375MichealTHOMPSONM 00:48:04
2941021TomELLIOTMU18 00:48:04
295670JoannaHORNEL35 00:48:05
296597RichardANNESSM40Goole Vik Striders00:48:05
297243GeoffCRUICKSHANKM 00:48:05
298750David JohnCOOPERM45 00:48:06
299647PatrickEGANM 00:48:07
300810ShaunFLETCHERMBarton & Dist AC00:48:07
301594TerryFLETCHERM45 00:48:07
302226JillDOWSONL40Pock' Runners00:48:08
303443GrahamWALKERM50Goole Vik Striders00:48:09
304662StuartARNOTTM40 00:48:09
305797HelenSTORRL40Beverley AC00:48:10
3061171PaulHOWARDM 00:48:11
307849VanessaKERSEYL 00:48:12
308667MarkWOODM 00:48:14
3091042FionaCAMPBELLLU18 00:48:16
310822DavidMUSCHAMPM60 00:48:18
311502RichardLANCASTERM45 00:48:21
3121100MatthewSREEVESM 00:48:22
313504DavidWARDMU18 00:48:24
314505BrianWARDM45City Of Hull00:48:25
3151002PaddySTEPHENSM45 00:48:27
316463StevenHOLMESM50City Of Hull00:48:28
317474AndrewMEEKM 00:48:28
3181007SimonMILLSM 00:48:32
319567LucySTAMFORDL 00:48:32
32057SteveGAMBLEM45 00:48:34
321783SeanMOOREM 00:48:34
3221162ClaireVICKERSLBarton & Dist AC00:48:36
323804AnthonyREYNOLDSM40Humberside Police00:48:37
324585SueDAVIESL40 00:48:38
3251121BarryCOOPERM55East Hull Harriers00:48:39
326885Ruth MargaretOXTOBYL 00:48:40
327716IvanBLOCKM40 00:48:40
32864SusanGIBSONL 00:48:41
329218AlanDALEM45Barracuda Tri00:48:41
330433CraigTAMMINENM 00:48:42
33168NicolaPLANTLSpringhead Harriers00:48:43
332106RichardCOOPERM 00:48:44
3331147JohnHORNCASTLEMSpringhead Harriers00:48:46
33494DavidRUDDM45 00:48:46
335591JackieWRIGHTL40 00:48:47
336179StephenRICHMONDM50East Hull Harriers00:48:48
337978TonyHARRISONM40 00:48:49
338152IanTASKERM 00:48:49
339317BarryMADDISONM 00:48:50
3401008DavidGLENMU18 00:48:51
341437AnthonySHIPLEYM50 00:48:53
342217AlbertoGIROLAMIM40 00:48:55
343833MaxHOUGHM 00:48:56
3441107PaulineANDREWSL45 00:48:57
3451108IanJOHNM45Haltemprice RRC00:48:58
346639BrianDOBSONM45Pock' Runners00:49:05
347438TomFRASERMU18 00:49:10
348789AndrewSHANKSMEast Hull Harriers00:49:11
349153AlanBASKERM 00:49:12
350596MarkWARDROPPERM40 00:49:12
351996StevenWORTHMPock' Runners00:49:13
352962PaulHUTCHINSONM50 00:49:13
3531138DavidROBSONM 00:49:13
354720DavidSIDDLEM50 00:49:14
355827StevenGLENVILLEM 00:49:14
3561177AngelaSWIFTL45Withernsea Harriers00:49:15
357523 ????  00:49:16
35898JangeCLAVIJOM40Wold Vets AC00:49:16
3591194FionaFISKL40Scun & Dist AC00:49:18
360888TrevorSTAVESM50White City Road Runners00:49:20
3611006AlanRAMAGEM40 00:49:22
362104PiersANDREWM 00:49:24
363782MarkLAINGM40 00:49:26
3641212JamesROACHM 00:49:30
36585JesSMITHM50Quakers RC00:49:31
366620DeborahADCOCKL45East Hull Harriers00:49:32
3671191SimonHIRSTM 00:49:32
368189AlistairMACNEILM40 00:49:33
369157AdeleSHIPLEYL35Pock' Runners00:49:33
370867MarkROBINSONMCity Of Hull00:49:34
371483StuartNICHOLSONM45 00:49:35
372817MarkO'SULLIVANM 00:49:36
373470AndrewMARSONM45 00:49:38
37430KevinO'LEARYM 00:49:39
37529DarrenO'LEARYM 00:49:40
376227PaulSHERIDANM40Pock' Runners00:49:42
3771136PeterRICHARDSONM45Swaledale Runners00:49:43
378454PeterHARDMANM55 00:49:44
379768PhillipBUCKLEYM 00:49:46
380897MathewSINCLAIRM 00:49:47
381884JehHALLM 00:49:48
382950DanielWATTSMU18 00:49:50
383530WalterGAMMISHM60 00:49:51
3841035AlexGRAYM 00:49:53
385654SteephenVOASEM40 00:49:54
38637MarkHEPWORTHM40 00:49:55
387799JustinRICHARDSM 00:49:56
3881079PaulTAYLORM 00:49:57
389886StephenMORTIMERM 00:49:58
390175RachelLETHAML35 00:49:59
391733FredericDE LA TORREM 00:50:01
39251PhilipROBINSONM50White City Road Runners00:50:02
393580MarkDAUBNEYM 00:50:02
39467NigelSAWYERM40Humberside Police00:50:03
395194MikeLEITCHM40 00:50:03
396877PhilipBELLM45 00:50:04
3971151AlexFOSTERMU18 00:50:05
398571JayneCREERL 00:50:06
3991092KristianSTARKEYM 00:50:07
4001109JohnHUDSONM 00:50:09
401730StephenTHIRSKM45East Hull Harriers00:50:12
402451ElizabethSANDERSONL35 00:50:16
40353SteveHOEYM 00:50:19
404861HelenBALDWINL40 00:50:22
405918MikeHARVEYMGoole Vik Striders00:50:25
406458LaurieKENNYM45 00:50:27
407879TamsinHARTLEYL40 00:50:29
408648RonSTEARMANM55 00:50:31
4091039DerekPATERSONM55 00:50:32
4101117StephenBALLM45 00:50:33
4111020PaulHYNARDM 00:50:34
412642StellaDINSDALEL55White City Road Runners00:50:35
413356PaulEVANSM40 00:50:36
414223JohnHELMM55 00:50:37
415681DavidLORDM55 00:50:38
416652GaryLINEYM 00:50:39
417682LorraineLORDL45 00:50:40
418995JimOGILVIEM45 00:50:41
41941JaneTAYLORL45 00:50:43
4201168DavidBATEMANM 00:50:44
421556KellyHILLL 00:50:45
422449IanWORMALDM 00:50:47
423997HelenSAMPSONL45City Of Hull00:50:48
424910MarkHOLDSWORTHM 00:50:49
425632JohnSEAGRAVEM50 00:50:51
426171DavidBUTTM50 00:50:53
4271211CharlieCODEMU18 00:50:55
428169JoFLETCHERL40West Hull Ladies00:50:56
4291126DeniseTHOMPSONL45City Of Hull00:50:57
430387JohnMYERSM40 00:50:57
431402TraceyJARVISL 00:50:58
432103EmmaANDREWL 00:51:01
4331064StephenBLACKMANMU18 00:51:02
434452KarenSTIMPSONL40 00:51:03
435819KevinFORDM50 00:51:04
436424EdwardBURNSM45 00:51:05
437828DaraBALLL35 00:51:06
438134PaulSHEPHERDM 00:51:07
439811PennyDARMODYL45East Hull Harriers00:51:08
440517SimonSPINKSM 00:51:10
441892GiuwaWILKINSLScarboro' AC00:51:11
442824JamesHARDWICKM 00:51:12
443891MikeWILLISM60Scarboro' AC00:51:13
444164SimonWEEDYMPock' Runners00:51:14
445133KennethALLANM50 00:51:15
446469GeoffDONKINM45 00:51:16
4471183CaterinaCOOPERL 00:51:17
448486CaroleBLACKWELLL50 00:51:19
449709DavidSIMPSONM50 00:51:21
450633PhilipSAWDENM 00:51:22
451332TinaWIGGLEWOTHLEast Hull Harriers00:51:24
452609CraigPARKERM 00:51:24
4531069ThomasHUMEMU18 00:51:25
4541217MauriceMONTEITHM 00:51:25
4551067RichardKIRSCHM 00:51:26
456525DavidPICKERINGM55 00:51:27
457947KevinGALITHORPEM40 00:51:28
458190JonathanLUCKHURSTM 00:51:30
459293MartinHEWITTM50East Hull Harriers00:51:31
460319JohnTRAYNORM 00:51:33
4611048ChrisSCHONEWALDMU18 00:51:36
462919JaquiCOWIEL35 00:51:38
46359MikeO'BRIENM45 00:51:42
464416DavidBURTONM40 00:51:44
465742RachelHALLL 00:51:44
466322NeilBROOKSM 00:51:48
46760RobertBULLOCKMHumberside Police00:51:49
468581GarethWILLIAMSM45 00:51:49
4691120MathewLOVEM 00:51:50
470245SallyMILLINGTONL40 00:51:50
471220MarkROBINSONM50City Of Hull00:51:52
472841PhilipJACKSONM45 00:51:52
473377CarolHALLL50Wold Vets AC00:51:53
474328JonREASTM40 00:51:55
4751012HarryDEEMU18 00:51:56
476373ChristinePARKINSONL40 00:51:58
4771055MaddieHALLLU18 00:52:00
478144SharonJAMESL45 00:52:01
479723ChristianCURRYM 00:52:01
4801003TimPEDLEYM65 00:52:02
481113MaxHODGSONM45 00:52:03
482378TraceyGIBSONL40Wold Vets AC00:52:04
483927PeterDAWSONM40 00:52:06
484659RobertPRECIOUSM 00:52:07
485777DavidSINGLETONM40 00:52:08
4861181KarlADDRISONM40 00:52:08
4871077PeterSMITHM60 00:52:09
488235MarkMAJORM 00:52:10
489236JoanneJAGGERL 00:52:10
4901011IainJARVISM 00:52:10
491572IanCREERM 00:52:12
4921070TimPEETMU18 00:52:13
493602AngelaHUNTERL35 00:52:20
494313NicholasLUCASM 00:52:20
4951200JedHOLDENM50Beverley AC00:52:22
4961184VictoriaSTEPHENSONL 00:52:24
497908ClaireLAZENBYL 00:52:25
498958IanJACKSONM40 00:52:26
499868LyeandaMOULDINGLCity Of Hull00:52:28
500321SoniaBARRETTL35 00:52:29
501649KateBIRKENHEADL45 00:52:30
502367JaniceHUSONL45 00:52:34
5031123KeithCLAYTONM50 00:52:35
504410MarkDAWSONM 00:52:37
505634DebbieWATSONL40 00:52:39
5061204ElspethMACLOUDLU18 00:52:40
507785Peter BenjaminHENDERSONM60 00:52:42
508412KeithROBINSONM45 00:52:45
5091033WillGASTRELLMU18 00:52:46
5101034AlexTAYLORMU18 00:52:47
511565MargaretBOYDL35 00:52:47
512735PatrickHANNIGANM50 00:52:47
513159JacquiDICKINSONL50East Hull Harriers00:52:48
514651AndrewSKINNERM50 00:52:49
515242ElizabethLEWISL 00:52:49
516584VincePEACOCKM45 00:52:50
517384HelenBOWYERL40 00:52:50
518362GlennHALSEYM40Hull Springhead Harriers00:52:51
519676JohnQUIGLEYM 00:52:52
520786PeterHENDERSON ANTHONYM 00:52:52
521770JohnPAWSONM60City Of Hull00:52:52
522840ColinSHIPLEYM45 00:52:52
523158ColinSHIPLEYM40 00:52:53
5241096CarolGODSONL45 00:52:54
5251188CarlWINDSORM45 00:52:55
5261195BillFISKM50Scun & Dist AC00:52:58
527604ChristopherWHITELEYM45 00:52:59
528561RogerLEWISM60 00:53:01
529762IanDIXONM 00:53:02
530761DaveBURGESSM40 00:53:03
531140ChristopherMC LOUDM 00:53:04
532184ErichGREENM 00:53:05
533197GeorginaCRICHTONLWest Hull Ladies00:53:06
534803SteveLAZENBYM 00:53:07
535527DavidWALMSLEYM 00:53:09
536510LisaDAVISL35East Hull Harriers00:53:10
537516PatriciaBROBYNL35 00:53:14
538491GrahamHARPERM50 00:53:14
5391124CarolynALLANSONL35Bridlington Road Runners00:53:15
5401125MartinALLANSONM40Bridlington Road Runners00:53:16
541355GailWRAGGL 00:53:18
542943DaveMACAULAYM45 00:53:19
543758David CharlesHEATONM 00:53:20
544456JohnBAKERM40 00:53:20
545219KevinDEANM50Barracuda Tri00:53:21
546126AndrewWRIGHTM45 00:53:22
547145RichardMILLBANKM 00:53:25
548257JohnPEACOCKM45 00:53:28
549231SamDEARINGL35 00:53:30
550976MichaelBRAMMERM 00:53:31
55156PeterBROADBENTM 00:53:32
552408MalcolmFRASERM40 00:53:34
553391AdrianSTYCHEM40 00:53:35
554773GrahamHAWKINSM55Bridlington Road Runners00:53:36
555536PaulSHARMANM 00:53:38
556658JohnCAMERONM 00:53:39
557692MarkROBERTSM45 00:53:40
558336SamBIXBYM 00:53:41
559668SimonBARLOWM 00:53:41
560640JamesDOYLEM45 00:53:42
561661TrevorCHEESEMANM45 00:53:43
562413ZoeGEARYL 00:53:45
563187WendyBURNETTLHull Springhead Harriers00:53:45
564198SueVICARYL45Pock' Runners00:53:46
565699JoanneDARLEYL40 00:53:46
566557RussellMARTINM 00:53:47
5671053JohnLETHAMM50 00:53:48
5681106DebraANDREWL40Goole Vik Striders00:53:49
569551SharonMC CUEL 00:53:50
570975ChrisHOPTONM 00:53:51
571616ChristopherZANETTIM45 00:53:52
572605SusanWHITELEYL40 00:53:52
57363IanPARKM 00:53:52
574911JaneCURRANLBarracuda Tri00:53:53
575548BeckyDOCKERILLL 00:53:53
576216AlanSCARBOROUGHM45 00:53:54
577729SimonBURNSM45 00:53:57
5781116DarrenBLADESNDB 00:54:00
5791014SamHALLL 00:54:01
580873GaryTREESM 00:54:02
5811082DavidTHOMSONM45City Of Hull00:54:04
582805DonnaREYNOLDSL50 00:54:05
583904AnnekeIMESONL 00:54:06
584734AndrewHANNIGANM 00:54:08
5851097PaulHARDISTYM50 00:54:10
5861104KevinANHOLMM45Withernsea Harriers00:54:11
5871178RobertSWIFTM45 00:54:12
588933ElizabethBHANDARIL35 00:54:15
589752JudiHOLMESL40 00:54:18
590569JanetLAWRENCEL60Scarboro' AC00:54:20
591599PeterEMMERSONM40 00:54:20
592601NickBOYDM 00:54:21
593390LesJONESM50 00:54:22
594279RichOSGERBYM40 00:54:25
595988PaulGREENEM45 00:54:26
596419JonathanYOUNGM 00:54:27
597685AngelaHATFIELDL35 00:54:29
598693StuartWELLSM40 00:54:30
599890SueBARRITTL45 00:54:31
600553KenCUMMINGSM40 00:54:34
601704PamelaPEARSONLBarton & Dist AC00:54:35
602498AlisonHOGGARTHL40Goole Vik Striders00:54:36
6031111ChristopherNESSM 00:54:38
6041112DamionJENKINSONM 00:54:39
60531KeithMORRISM 00:54:39
6061119AndrewCLARKEM40 00:54:40
607977JasonHARRISONM 00:54:41
608121PaulCOOMBSM 00:54:44
609105 ???????  00:54:45
610340SamanthaHAYESL40 00:54:48
611949BradleyWATTSMU18 00:54:49
612271KarenMARKHAML50 00:54:51
6131130ElizabethWILSONL 00:54:52
614679NinaWILLIAMSL40Saints and Sinners00:54:53
615883JonathanBYRNEM40 00:54:54
616913ClaireSWIFTL35City Of Hull00:54:56
617866Kylie AnneSOWERBYL 00:54:56
618914LeeSWIFTM40City Of Hull00:54:57
619149CharlieHOLIDAYM40 00:54:57
6201017OliverTELFERM 00:54:58
621304VickyPRESCOTTL 00:54:59
622331NicolaHERONL 00:55:00
623607PeterRICHARDSONM 00:55:02
624427PaulHARRISM40 00:55:05
625894LisaBEALL 00:55:06
626528DianneSYGROVEL40 00:55:08
627272GeoffWESTONM60 00:55:09
628987RobertBUDDM55 00:55:10
629545HelenQUANTOCKL35 00:55:11
63038BarbaraMILLERL50 00:55:12
631188DeniseOLDSL55Hull Springhead Harriers00:55:15
632292JamesCHRISTIAN - ILETTM40 00:55:17
633893ChrisWATSONM 00:55:20
634430JohnHORTONM65 00:55:23
635478JohnLEDGERM 00:55:25
636389JasonSKINNERM 00:55:27
63747PaulHAYHURSTM 00:55:30
6381133GregMILLERM 00:55:31
6391134KerenMILLERL 00:55:35
640267KeithTYLERM60Cleethorpe AC00:55:36
641552RachelCOLLINSL40 00:55:36
642981SerenityTAYLOR- HANSONL 00:55:37
643696SarahPEAKERL35 00:55:38
6441153CarlSTOCKTONM 00:55:39
6451139PhilipSTOCKTONM 00:55:39
646230JoDEWARL50 00:55:40
647446JuliaCHALLENL 00:55:40
648148MichelleHOLIDAYL40 00:55:43
649747RobertLEEM50 00:55:47
650559IainHILLM40 00:55:48
651806SarahPURDYL40 00:55:49
652899GrahamJOHNSONM50 00:55:50
653464MarinaBOOTHL45Goole Vik Striders00:55:52
6541085StevenBATESM40 00:55:55
655902JackieJAMESL40 00:55:57
6561045GeorginaHAYWARDLU18 00:55:57
6571040EilishHANNAHLU18 00:55:58
658284IanTURNBULLM45 00:55:59
659745DavidPLAYLEM45 00:55:59
660744NeilFENNELLM50 00:56:00
661154ChristineSAUNDERSONL40 00:56:02
662686TomPUGHM 00:56:07
663191SarahSMYTHEL50 00:56:10
664779SandraWILSONL60 00:56:11
665110JamesGREENWOODM 00:56:12
666342JohnLONGM45 00:56:14
667669DawnSHARPEL40 00:56:17
668453JackieHARDMANL50 00:56:17
669182NickRICHMONDMU18East Hull Harriers00:56:18
670628Alan JohnWRIGHTM50 00:56:19
671186GrahamBENTONM50Maltby Running Club00:56:20
672341MarieLONGL55 00:56:20
673543MarkGREENM45 00:56:24
674724BridgitteCARTERL35 00:56:27
675122MathewSHAWM 00:56:29
676794ElaineCLUCASL40 00:56:30
677790JoannePICKERINGL35East Hull Harriers00:56:33
678348HelenHUNTL40 00:56:36
679506JohnVRUBLEVSKISM40 00:56:40
680162BeverleyCOMPTONL40 00:56:42
681405Luke ThompsonWATSONM 00:56:44
682406MarkBISHOPM 00:56:46
68393MichaelWARRINGTONM40 00:56:47
684623ColinWRIGHTM 00:56:47
685624StellaSQUIREL35 00:56:49
686252StephenHOYLESM 00:56:50
687493JodyHORTHL 00:56:50
688481JennyTRICEL40 00:56:51
689712JohnHINCHLIFFEM55 00:56:53
690701MikeGREENM55 00:56:54
691705FrancinaWHELANL45 00:56:54
692289MargaretBUSHNELLL45Hull Springhead Harriers00:56:55
69340CarolineBOWDITCHL45 00:56:59
694791AlanCLARKM 00:57:00
695485StephenHADFIELDM 00:57:00
696228KarenTOWNERL50White City Road Runners00:57:01
697111June AnnLEAFEL40 00:57:04
6981000JonathanLEAFEM40 00:57:06
699680GeorgeMORRISM55 00:57:08
7001163TrevorWAUDBYM50White City Road Runners00:57:10
701546SusanSIMSONL50 00:57:13
702299JonathonWRIGHTM55 00:57:15
703376IanJUBAM55 00:57:15
7041010FrancisWRIGHTM 00:57:18
705137CarrenTAUN JACKSONLGoole Vik Striders00:57:19
706728JakkiKNIGHTL35 00:57:22
707780AlisonLINGARDL40City Of Hull00:57:25
708562MaryLEWISL 00:57:25
709852AlisonGILFILLIANL35 00:57:27
710482PaulineBARTONL40 00:57:28
7111129JaneSHINGLESL40 00:57:30
7121186MikeVENTONM40 00:57:34
713754SteveCUNNINGHAMMCity Of Hull00:57:38
714610MartinTURNERM 00:57:40
715826DavidGLENVILLEM50 00:57:46
716660SarahMC CARTNEYL50 00:57:50
717484HannahPUTTNAML 00:57:52
718307JillBRADLEYL40 00:57:54
71976CliffSIMMM65Easingwold RC00:57:56
72074KatrinaTHOMPSONL 00:57:58
721237ClarePOLLARDL 00:57:58
722238SimonDIXONMYork Knavesmire Harriers00:57:59
7231026NickiWILLIAMSL40 00:57:59
72454JudithMURDOCHL40 00:58:00
725614LindsayBRITTAINL40 00:58:01
7261206RichardSMYTHM55 00:58:04
727706AnneEVERITTL45 00:58:04
728394TrevorSTAVELEYM65 00:58:07
72979AndrewROLLINM 00:58:10
730444JoanneMOUNCEYL35Goole Vik Striders00:58:12
731211DarrenDODDSM40 00:58:16
73288KerryDIMMOCKL35 00:58:18
733856KeithWARNERM45 00:58:19
7341192JamesKERSHAWM 00:58:19
735339HelenWATSONL40Huddersfield Road Runners00:58:19
7361145NeilCOUNTERM 00:58:20
737269DianeDUNHILL Springhead Harriers00:58:27
738156JohnCOMPTONM40 00:58:30
739781KristianBOOTYM 00:58:31
740795AnnCUNNINGHAML55 00:58:33
741146KatyBENSONL 00:58:35
742857RuthMORTL40 00:58:38
7431081SarahANDERSONL45 00:58:41
74487RachelWAUDBYL 00:58:42
7451046SharonWILLIAMSL40 00:58:44
7461044KayWHITELYM40 00:58:45
7471024LouiseBOWIEL45 00:58:48
748247AlexMACKENZIEM 00:58:49
749784AnnHENDERSONL55 00:58:50
750656NicolaWESTL35 00:58:52
751951JoanneMUIRL 00:58:53
752132RichardALLANM 00:58:55
753603JackieOMBLERL40 00:58:57
7541103EmmaGOODMANL 00:59:01
755736LucieTHORNTONL35 00:59:03
756907RichardLAZENBYM 00:59:05
757613Jo-anneWOODL 00:59:06
758641JaneWEATHERSTONL35 00:59:07
759644PaulaROFFEL40 00:59:09
7601170BillRIGBYM65 00:59:10
7611216SamMURGATROYDMU18 00:59:11
76212JenneyGORDONL45 00:59:11
763366YendisWESTERMANL50 00:59:12
764566SoniaGREAKENL35 00:59:13
7651084SimonALLANM 00:59:14
766160Mathew PaulBALDWINM 00:59:14
767312DebbieROOKESL35 00:59:15
76814JulianHUNTM40 00:59:15
76919SokolHYSENAJM 00:59:16
77018MartinDAVIESM45Beverley Fire Station00:59:18
771608LauraGOTHAYL 00:59:19
77213CharlesJENNEYMBeverley Fire Station00:59:19
77358RobertDINSDALEM45 00:59:20
7741095BillGODSONM40 00:59:22
775533AlanTHOMSONM50 00:59:25
776379DarrenGIBSONM45Wold Vets AC00:59:30
7771137JoanneRICHARDSONL40Swaledale Runners00:59:34
778249JenniferDAVIESLSouthwell Running Club00:59:37
779501AllisonPICKERINGL35 00:59:39
780208MoiraROBERTSL35YPI West Hull Ladies00:59:40
781722MaxineCURRYL35 00:59:48
782224JulieTHOMPSONL45 00:59:49
7831169KarenBATEMANL 00:59:50
784535SarahJOHNSONL 00:59:50
78578BruceMARRM60Barracuda Tri00:59:58
786588DaleHUNTINGTONM45 00:59:59
787276GraigATKINM 00:59:59
7881208ChristineROUNDL45 01:00:00
789114RodPEETM45 01:00:05
790383JudiJOBLINGL60 01:00:07
791135TanyaDAVIESL 01:00:08
792138BarbaraDYKESL50Goole Vik Striders01:00:10
793480SimonCOWLINGM40 01:00:10
794499IvorIBBITSONM65 01:00:11
795917MarkHARRISONMCity Of Hull01:00:15
79652AnneHAUGHANL50 01:00:24
797479AmandaDILLONL 01:00:30
798555Nicola JayneKILFORDL35 01:00:33
7991083ShaunHEWICKM40 01:00:36
800920RobertSAWYERSM 01:00:38
801441TracyBLACKBURNL35 01:00:42
802262MikeSHIELSM 01:00:48
803653EmmaWALMSLEYL 01:00:49
8041144PaulCLARKEM60Haltemprice RRC01:00:50
805578MartinPEACOCKM 01:00:52
806295LynneHARTASL45 01:00:54
807294KarenHARPERL40 01:00:55
808731DeniseOMBLERL55East Hull Harriers01:00:56
809577MarieLAYFIELDL35 01:00:58
810285HeidiBOOTHL 01:00:59
81161DonHAUGHANM60 01:00:59
812558JulieWILSONL45 01:01:00
813116MichelineBAKERL55 01:01:00
814472ElizabethSHAWL45 01:01:01
81583TrevorCLARKM55 01:01:02
816259ClaireCLARKL40Scun & Dist AC01:01:03
817800BeckyNEWTONL 01:01:04
818801GaryWILKINSONM 01:01:07
819870NeilJORDANM 01:01:10
820428MaralynMANNIFIELDL55 01:01:16
821915GillMORRELLL45 01:01:20
822869DianaJORDANL35 01:01:24
823261SimonSHIELSM 01:01:27
824507MargaretVRUBLEVSKISL45 01:01:28
825529CharlotteBURTONL 01:01:29
826466JaneWOOLSTONM 01:01:30
827124LizzieSANDERSONL45 01:01:32
828751AngelaHYNARDL 01:01:34
829842MandyANNISL35 01:01:38
830843GlynnisTURNERL40 01:01:39
831375AnnaLONGBONEL 01:01:40
832374GarryLONGBONEM50 01:01:45
833889SueRICHARDSONL45 01:01:46
834560DavidEDWARDSM 01:01:49
835176CatherineCHAPPELLL35 01:01:50
836941KarenMC LOUGHLINL50 01:02:00
837215EmmaROEL 01:02:08
838500SusanHERDSMANL50 01:02:13
839520SarahWILSONLU18 01:02:19
840694JayneBEAUMONTL40 01:02:21
841695ColinO' CONNERM45 01:02:21
842703KatieHEADINGLBarton & Dist AC01:02:21
843316MichaelPHILPOTTM45 01:02:28
844333JeanRENNISONL40 01:02:35
845524JillMIDDLETONL50 01:02:39
846357RobertPEARSONM55 01:02:50
847241ChristineRHODESL40 01:03:01
848330JimWINDASSM55 01:03:03
849329StevenWINDASSM 01:03:03
850327SueREASTL40 01:03:03
851579ClaudiaGHERARDELLIL35 01:03:05
852407HeatherREDMANL35 01:03:05
853306CarolGALLOWAYL40 01:03:05
85492DavidBELLM45East Hull Harriers01:03:11
855432AnitaSHIPLEYL50 01:03:14
856963PhilipCROCKETTM 01:03:15
857324JohnnyMYERSM40 01:03:17
8581068EmmaMILLIGANLU18 01:03:19
8591054JessELKINGTONLU18 01:03:20
860830KateLONGL 01:03:21
861839NicolaPLAYLEL 01:03:22
862492RobertTHOMSONM65Haltemprice RRC01:03:32
8631022NikkiBANELU18 01:03:34
864210ChristineWALKERL40 01:03:35
8651029GemmaWILLIAMSLU18 01:03:39
8661025SimonWILLIAMSM40 01:03:39
867635AlanBROOKEM45 01:03:40
8681099SarahKINEL 01:03:43
869900DavidKINGM50 01:03:43
870655VictoriaVOASEL40 01:03:45
871721SamuelTAYLORM 01:03:49
872646ShaunWRIGHTM45 01:03:58
8731110MelanieHEATHL 01:04:01
874746KristinaLEEL45 01:04:04
875195BridgetLEITCHL35 01:04:05
876948JaneWATTSL35 01:04:06
877715NickCRESSWELLM 01:04:09
8781066EmmaROWLEYL 01:04:12
879865SharonHARTLEYL55West Hull Ladies01:04:15
880123MarshallSANDERSONM55 01:04:17
8811218ClaireFLETCHERL 01:04:18
882738Lucy AlexandraTOPHAML 01:04:20
883838CeliaEVANSL50 01:04:28
884725JulieMOUNTJOYL35 01:04:29
885726HelenRICHARDSONL 01:04:30
8861078MargaretGROOML45 01:04:35
8871076DawnSMITHL60 01:04:36
888946ChrisBRUCEM 01:04:37
8891075PaulLEAFM40 01:04:38
890691KathrynBEARDSHALLL45West Hull Ladies01:04:40
8911061CharlotteNELSONLU18 01:04:42
892117SuzanneBALDWINL 01:04:44
893108JulieWATSONL40 01:04:44
894109RobertWATSONM45 01:04:45
8951049RachelHOPPERLU18 01:04:47
896275AlexSUTCLIFFEL35Swaledale Runners01:04:50
8971101KeithNORTONM55 01:04:52
898878KeithJACKSONM45 01:04:54
899201JulianCRABTREEM40Hull Springhead Harriers01:04:56
900290StephenWARRANM55Hull Springhead Harriers01:04:57
90182JohnHARRISONM 01:04:58
902600DavidBRISTOWM40 01:05:04
903916PaulBENTLEYM 01:05:10
904274PaulGILESL 01:05:17
905476SerenaHARDINGL40 01:05:18
906477JohnHARDINGM40 01:05:19
907268LindaBRISTOW-TYLERL55Cleethorpe AC01:05:22
908537Jackie AnnPASHLEYL45 01:05:25
9091087RayPIERSONM65City Of Hull01:05:27
910345IanCORNWELLNDB 01:05:32
911583GillianBARLEYL35 01:05:43
912678TracyMORSHEADL 01:05:53
913256LisaHINCHLIFFEL35 01:05:53
914994AngelaOGILVIEL45 01:05:55
9151205SarahMORGANL 01:05:55
9161071RhonaHUNTLU18 01:05:58
917952CaliiGREENLEYL 01:05:58
91850SuzanneFRANCISL 01:06:01
919471RosemaryALTONL40 01:06:20
920818MandyO'SULLIVANL40 01:06:32
921965StephanieBIRDL 01:06:35
922964DarrenGREGORYM 01:06:41
92381MonettePARKINSONL 01:06:41
924793SusanOLIVERL45 01:07:05
925973LewisCAMERONM 01:07:13
9261214MichealBAILEYMU18 01:07:20
92797RichardTODDM 01:07:23
928266TracyHURTONL 01:07:32
929251KathleenWILLISL45West Hull Ladies01:07:37
930338NicolaHUGHESL40 01:07:37
931234VictoriaSCORAHL 01:07:45
9321019ShaunPRICEM45 01:07:48
9331043MarkBARKERM 01:07:48
934513SarahLONGDENL40 01:07:59
935192ChristineMORGANL60Hull Springhead Harriers01:08:05
936435CarolineGILDERDALEL45 01:08:26
9371157JackySMITHL40 01:08:49
938515ColetteFREEMANL45 01:08:50
9391023EmmaMACALISTER HALLL 01:08:51
940924AnneRICHARDSONL40 01:09:02
9411167MarkWILLOUGHBYM40 01:09:03
9421118MalcolmGRAYM50 01:09:04
9431114KarenMOATEL40Baildon Runners01:09:08
9441060VikieBEWLU18 01:09:42
945193JillELLIOTTL45Hull Springhead Harriers01:09:53
946298TracyNORMANL40 01:09:55
947521JulieWILSONL45 01:10:00
948418DonnaYOUNGL35 01:10:04
949589JasonTAYLORM40 01:10:40
9501058LydiaHAWTHORNLU18 01:10:52
9511213EmilyBAKERLU18 01:10:52
952263DebbieO'BRIENL40 01:11:18
9531050KirstieROBERTSONLU18 01:11:20
954409PaulABLETTM45 01:11:28
955372JoanneCLARKL35 01:11:42
956371SarahKELLYL 01:11:42
957370PeterCLARKM45 01:11:42
9581115TimSAGEM 01:11:48
9591057GraceMALU18 01:12:00
960940KarenO'CONNORL50 01:12:14
961945TinaBRUCEL45 01:12:28
9621062HannahBURLEYLU18 01:12:30
963494AmandaBIRDL45 01:12:34
9641182ShanOAKESL50 01:12:40
965277SusanGEARINGL35 01:13:08
966442MargaretHOUGHTL 01:13:13
967278MaxineOSGERBYL35 01:13:16
968627TraceyMURRAYL35 01:13:16
9691051AlexandraLANGFORD  01:13:38
970488ClaireHAIGHL 01:14:04
971489BethanWATKINL 01:14:07
9721074LouiseDENISONL45 01:14:48
9731073JaneHOUGHL45 01:14:48
974115SamanthaPEARSONL 01:15:42
97549LisaDIXONL 01:15:45
976665StaceyEDMONSONL 01:15:48
977664KennethFERGUSSONM 01:15:50
978611AnneLATUSL 01:15:53
979710KathleenYOUNGL50 01:17:23
980518PhilippaHEMSTOCKL 01:17:31
981448CarlyBODILLL 01:17:32
9821190MelanieLOGANL35 01:17:36
983359LouiseNEWLOVEL35 01:18:07
984281EmmaWILSON L 01:18:07
985774FelicityCLAYTONL 01:18:47
9861094DarrenHEWITTM 01:19:24
987727AndyPARSONSM 01:19:24
98877LeighBURGINM 01:19:24
989999IanFAHYM 01:19:24
990923RogerBENNETTM 01:19:24
99146RobertJAMESM 01:19:24
992853PAULBURNETTM 01:19:24
99344JamesKELLYM 01:19:24
994993StuartQUINNM 01:19:24
995994PatKELSEYL60 01:43:30
Back to year index - Top of page